Jolyn — PJWG — position and weather

sailwx.info

Track history (hours):
 
Tides and Currents Weather Stations Pressure Air Temp Water Temp Dewpoint Dewpoint Depression Visibility Wind Speed Wind Dir Waves Ship Positions

Jolyn

Last reported at 2014-Aug-20 00:29 UTC. Time now 2014-Aug-20 08:53 UTC.
Position N 37°52' E 004°50'.

Length 89 m; draft 5.6 m.

Type: Cargo ship. MMSI: 306813000.

Date/timePositionNaut miles runAvg speedWind from/ knotsBaromVisibWave heightAir tempDewpointWater temp
2014-Aug-20 00:29N 37°52' E 004°50'12 9.7
2014-Aug-19 23:15N 37°48' E 004°35'61 9.9
2014-Aug-19 17:05N 37°31' E 003°21'35 9.9
2014-Aug-19 13:33N 37°21' E 002°39'105 9.6
2014-Aug-19 02:33N 36°52' E 000°33'  
2014-Aug-16 22:27N 36°26' W 008°34'1010.5
2014-Aug-16 21:33N 36°28' W 008°46'3310.6
2014-Aug-16 18:24N 36°41' W 009°24'910.8
2014-Aug-16 17:33N 36°48' W 009°32'1110.6
2014-Aug-16 16:34N 36°58' W 009°35'  
2014-Aug-12 05:13N 50°15' W 001°39'910.5
2014-Aug-12 04:22N 50°17' W 001°26'1012.2
2014-Aug-12 03:33N 50°20' W 001°11'1312.7
2014-Aug-12 02:34N 50°23' W 000°52'40 6.5
2014-Aug-11 20:26N 50°33' E 000°09'5 4.0
2014-Aug-11 19:10N 50°35' E 000°16'3 5.7
2014-Aug-11 18:34N 50°36' E 000°21'7 7.0
2014-Aug-11 17:33N 50°38' E 000°32'8 7.8
2014-Aug-11 16:33N 50°42' E 000°42'8 8.3
2014-Aug-11 15:33N 50°47' E 000°53'8 7.5
2014-Aug-11 14:32N 50°52' E 001°03'9 6.6
2014-Aug-11 13:10N 50°57' E 001°14'3 5.5
2014-Aug-11 12:32N 50°59' E 001°18'5 5.0
2014-Aug-11 11:33N 51°03' E 001°24'6 6.2
2014-Aug-11 10:34N 51°07' E 001°32'9 9.5
2014-Aug-11 09:34N 51°13' E 001°43'1111.4
2014-Aug-11 08:34N 51°22' E 001°53'1211.5
2014-Aug-11 07:34N 51°32' E 002°04'1010.3
2014-Aug-11 06:33N 51°40' E 002°14'32 5.4
2014-Aug-11 00:30N 52°04' E 002°50'4 4.3
2014-Aug-10 23:33N 52°06' E 002°55'5 5.1
2014-Aug-10 22:32N 52°10' E 003°01'7 6.5
2014-Aug-10 21:32N 52°14' E 003°09'7 6.9
2014-Aug-10 20:33N 52°18' E 003°18'17 5.7
2014-Aug-10 17:33N 52°25' E 003°43'5 5.3
2014-Aug-10 16:33N 52°28' E 003°51'7 6.8
2014-Aug-10 15:34N 52°31' E 004°01'8 8.3
2014-Aug-10 14:34N 52°31' E 004°14'9 9.4
2014-Aug-10 13:33N 52°29' E 004°30'4 4.2
2014-Aug-10 12:33N 52°28' E 004°36'0 0.0
2014-Aug-10 11:33N 52°28' E 004°36'0 0.0
2014-Aug-10 10:33N 52°28' E 004°36'0 0.0
2014-Aug-10 09:33N 52°28' E 004°36'0 0.0
2014-Aug-10 08:33N 52°28' E 004°36'0 0.0
2014-Aug-10 07:33N 52°28' E 004°36'0 0.0
2014-Aug-10 06:33N 52°28' E 004°36'0 0.0
2014-Aug-10 05:33N 52°28' E 004°36'0 0.0
2014-Aug-10 04:33N 52°28' E 004°36'0 0.0
2014-Aug-10 03:33N 52°28' E 004°36'0 0.0
2014-Aug-10 02:33N 52°28' E 004°36'0 0.0
2014-Aug-10 01:33N 52°28' E 004°36'0 0.0
2014-Aug-10 00:33N 52°28' E 004°36'  
Track history (hours):
 
Tides and Currents Weather Stations Pressure Air Temp Water Temp Dewpoint Dewpoint Depression Visibility Wind Speed Wind Dir Waves Ship Positions

Jolyn

Last reported at 2014-Aug-20 00:29 UTC. Time now 2014-Aug-20 08:53 UTC.
Position N 37°52' E 004°50'.

Length 89 m; draft 5.6 m.

Type: Cargo ship. MMSI: 306813000.

Date/timePositionNaut miles runAvg speedWind from/ knotsBaromVisibWave heightAir tempDewpointWater temp
2014-Aug-20 00:29N 37°52' E 004°50'12 9.7
2014-Aug-19 23:15N 37°48' E 004°35'61 9.9
2014-Aug-19 17:05N 37°31' E 003°21'35 9.9
2014-Aug-19 13:33N 37°21' E 002°39'105 9.6
2014-Aug-19 02:33N 36°52' E 000°33'  
2014-Aug-16 22:27N 36°26' W 008°34'1010.5
2014-Aug-16 21:33N 36°28' W 008°46'3310.6
2014-Aug-16 18:24N 36°41' W 009°24'910.8
2014-Aug-16 17:33N 36°48' W 009°32'1110.6
2014-Aug-16 16:34N 36°58' W 009°35'  
2014-Aug-12 05:13N 50°15' W 001°39'910.5
2014-Aug-12 04:22N 50°17' W 001°26'1012.2
2014-Aug-12 03:33N 50°20' W 001°11'1312.7
2014-Aug-12 02:34N 50°23' W 000°52'40 6.5
2014-Aug-11 20:26N 50°33' E 000°09'5 4.0
2014-Aug-11 19:10N 50°35' E 000°16'3 5.7
2014-Aug-11 18:34N 50°36' E 000°21'7 7.0
2014-Aug-11 17:33N 50°38' E 000°32'8 7.8
2014-Aug-11 16:33N 50°42' E 000°42'8 8.3
2014-Aug-11 15:33N 50°47' E 000°53'8 7.5
2014-Aug-11 14:32N 50°52' E 001°03'9 6.6
2014-Aug-11 13:10N 50°57' E 001°14'3 5.5
2014-Aug-11 12:32N 50°59' E 001°18'5 5.0
2014-Aug-11 11:33N 51°03' E 001°24'6 6.2
2014-Aug-11 10:34N 51°07' E 001°32'9 9.5
2014-Aug-11 09:34N 51°13' E 001°43'1111.4
2014-Aug-11 08:34N 51°22' E 001°53'1211.5
2014-Aug-11 07:34N 51°32' E 002°04'1010.3
2014-Aug-11 06:33N 51°40' E 002°14'32 5.4
2014-Aug-11 00:30N 52°04' E 002°50'4 4.3
2014-Aug-10 23:33N 52°06' E 002°55'5 5.1
2014-Aug-10 22:32N 52°10' E 003°01'7 6.5
2014-Aug-10 21:32N 52°14' E 003°09'7 6.9
2014-Aug-10 20:33N 52°18' E 003°18'17 5.7
2014-Aug-10 17:33N 52°25' E 003°43'5 5.3
2014-Aug-10 16:33N 52°28' E 003°51'7 6.8
2014-Aug-10 15:34N 52°31' E 004°01'8 8.3
2014-Aug-10 14:34N 52°31' E 004°14'9 9.4
2014-Aug-10 13:33N 52°29' E 004°30'4 4.2
2014-Aug-10 12:33N 52°28' E 004°36'0 0.0
2014-Aug-10 11:33N 52°28' E 004°36'0 0.0
2014-Aug-10 10:33N 52°28' E 004°36'0 0.0
2014-Aug-10 09:33N 52°28' E 004°36'0 0.0
2014-Aug-10 08:33N 52°28' E 004°36'0 0.0
2014-Aug-10 07:33N 52°28' E 004°36'0 0.0
2014-Aug-10 06:33N 52°28' E 004°36'0 0.0
2014-Aug-10 05:33N 52°28' E 004°36'0 0.0
2014-Aug-10 04:33N 52°28' E 004°36'0 0.0
2014-Aug-10 03:33N 52°28' E 004°36'0 0.0
2014-Aug-10 02:33N 52°28' E 004°36'0 0.0
2014-Aug-10 01:33N 52°28' E 004°36'0 0.0
2014-Aug-10 00:33N 52°28' E 004°36'  

Dump ship's entire track history